createdAt,value
2023-04-09T00:00:48.848Z,21.60
2023-04-09T00:03:16.135Z,12.55
2023-04-09T00:05:43.336Z,11.63
2023-04-09T00:08:10.430Z,22.83
2023-04-09T00:10:37.471Z,22.83
2023-04-09T00:13:04.421Z,21.63
2023-04-09T00:15:32.017Z,20.75
2023-04-09T00:17:59.963Z,8.20
2023-04-09T00:20:27.234Z,12.02
2023-04-09T00:22:54.454Z,11.50
2023-04-09T00:25:21.512Z,19.70
2023-04-09T00:27:48.460Z,11.20
2023-04-09T00:30:16.029Z,8.70
2023-04-09T00:32:43.000Z,9.43
2023-04-09T00:35:10.467Z,18.55
2023-04-09T00:37:37.477Z,19.23
2023-04-09T00:40:05.989Z,18.90
2023-04-09T00:42:37.583Z,10.27
2023-04-09T00:45:08.023Z,18.80
2023-04-09T00:47:35.606Z,19.42
2023-04-09T00:50:03.317Z,10.50
2023-04-09T00:52:31.088Z,9.18
2023-04-09T00:55:01.346Z,10.35
2023-04-09T00:57:29.006Z,10.77
2023-04-09T00:59:56.212Z,11.18
2023-04-09T01:02:23.326Z,11.70
2023-04-09T01:04:51.307Z,10.90
2023-04-09T01:07:29.059Z,10.07
2023-04-09T01:10:19.073Z,9.15
2023-04-09T01:13:13.806Z,10.32
2023-04-09T01:15:58.602Z,10.32
2023-04-09T01:18:36.954Z,9.82
2023-04-09T01:21:14.909Z,9.48
2023-04-09T01:24:17.141Z,9.30
2023-04-09T01:26:50.359Z,8.38
2023-04-09T01:29:19.369Z,7.88
2023-04-09T01:31:46.886Z,10.40
2023-04-09T01:34:16.302Z,9.43
2023-04-09T01:36:49.162Z,8.15
2023-04-09T01:39:16.731Z,8.10
2023-04-09T01:41:44.136Z,9.23
2023-04-09T01:44:12.722Z,8.73
2023-04-09T01:46:40.464Z,9.20
2023-04-09T01:49:07.946Z,10.30
2023-04-09T01:51:35.290Z,10.35
2023-04-09T01:54:03.842Z,11.27
2023-04-09T01:56:46.296Z,11.30
2023-04-09T01:59:14.025Z,9.60
2023-04-09T02:01:52.576Z,8.77
2023-04-09T02:04:34.330Z,7.75
2023-04-09T02:07:10.170Z,8.15
2023-04-09T02:09:39.584Z,10.13
2023-04-09T02:12:10.821Z,12.05
2023-04-09T02:14:38.430Z,13.32
2023-04-09T02:17:05.525Z,10.68
2023-04-09T02:19:43.695Z,10.45
2023-04-09T02:22:11.618Z,13.07
2023-04-09T02:24:38.955Z,12.65
2023-04-09T02:27:06.395Z,23.55
2023-04-09T02:29:33.835Z,13.52
2023-04-09T02:32:01.084Z,11.80
2023-04-09T02:34:28.378Z,11.63
2023-04-09T02:36:55.644Z,11.30
2023-04-09T02:39:22.602Z,11.00
2023-04-09T02:41:49.588Z,10.65
2023-04-09T02:44:16.601Z,12.18
2023-04-09T02:46:45.035Z,13.05
2023-04-09T02:49:12.090Z,13.65
2023-04-09T02:51:39.085Z,12.93
2023-04-09T02:54:06.093Z,15.13
2023-04-09T02:56:33.299Z,13.80
2023-04-09T02:59:00.431Z,13.73
2023-04-09T03:01:27.549Z,11.43
2023-04-09T03:03:54.668Z,10.95
2023-04-09T03:06:21.785Z,12.98
2023-04-09T03:08:48.806Z,12.10
2023-04-09T03:11:16.010Z,13.30
2023-04-09T03:13:43.003Z,12.23
2023-04-09T03:16:10.421Z,13.18
2023-04-09T03:18:37.638Z,11.52
2023-04-09T03:21:08.505Z,12.77
2023-04-09T03:23:38.397Z,9.85
2023-04-09T03:26:07.837Z,12.18
2023-04-09T03:28:42.487Z,11.70
2023-04-09T03:31:09.742Z,11.95
2023-04-09T03:33:38.971Z,10.80
2023-04-09T03:36:07.054Z,13.57
2023-04-09T03:39:00.557Z,9.95
2023-04-09T03:41:37.343Z,9.52
2023-04-09T03:44:08.991Z,11.10
2023-04-09T03:46:46.437Z,10.80
2023-04-09T03:49:16.743Z,12.00
2023-04-09T03:51:44.959Z,9.98
2023-04-09T03:54:12.700Z,12.73
2023-04-09T03:56:40.938Z,11.27
2023-04-09T03:59:11.184Z,12.80
2023-04-09T04:01:41.169Z,11.52
2023-04-09T04:04:09.442Z,11.80
2023-04-09T04:06:56.937Z,11.88
2023-04-09T04:09:44.159Z,12.23
2023-04-09T04:12:15.015Z,13.02
2023-04-09T04:15:05.282Z,13.57
2023-04-09T04:17:37.630Z,12.13
2023-04-09T04:22:50.499Z,11.93
2023-04-09T04:25:17.802Z,12.75
2023-04-09T04:27:46.439Z,14.65
2023-04-09T04:30:15.264Z,13.98
2023-04-09T04:32:55.340Z,11.43
2023-04-09T04:35:23.165Z,13.77
2023-04-09T04:37:54.730Z,14.32
2023-04-09T04:40:22.882Z,12.70
2023-04-09T04:42:56.768Z,14.25
2023-04-09T04:45:24.614Z,13.85
2023-04-09T04:47:55.200Z,14.60
2023-04-09T04:50:22.511Z,13.35
2023-04-09T04:53:03.365Z,12.45
2023-04-09T04:55:39.726Z,14.63
2023-04-09T04:58:08.427Z,14.63
2023-04-09T05:00:43.474Z,13.45
2023-04-09T05:03:10.902Z,16.17
2023-04-09T05:05:53.175Z,14.98
2023-04-09T05:08:20.754Z,16.55
2023-04-09T05:10:51.376Z,14.65
2023-04-09T05:13:20.202Z,20.23
2023-04-09T05:15:47.245Z,13.95
2023-04-09T05:18:14.276Z,14.43
2023-04-09T05:20:41.468Z,15.20
2023-04-09T05:23:12.611Z,15.15
2023-04-09T05:25:42.445Z,14.40
2023-04-09T05:28:17.046Z,13.13
2023-04-09T05:30:48.527Z,16.08
2023-04-09T05:33:17.861Z,13.13
2023-04-09T05:35:45.984Z,14.98
2023-04-09T05:38:14.071Z,15.27
2023-04-09T05:40:45.759Z,17.63
2023-04-09T05:43:13.556Z,14.90
2023-04-09T05:45:43.582Z,34.17
2023-04-09T05:48:10.920Z,16.00
2023-04-09T05:50:53.415Z,14.70
2023-04-09T05:53:23.916Z,15.90
2023-04-09T05:55:51.314Z,14.95
2023-04-09T05:58:21.693Z,15.32
2023-04-09T06:00:51.658Z,15.80
2023-04-09T06:03:19.478Z,18.35
2023-04-09T06:05:46.755Z,16.08
2023-04-09T06:08:14.255Z,16.40
2023-04-09T06:10:41.678Z,15.52
2023-04-09T06:13:09.899Z,16.15
2023-04-09T06:15:38.889Z,17.10
2023-04-09T06:18:05.875Z,14.88
2023-04-09T06:20:32.917Z,17.10
2023-04-09T06:22:59.927Z,18.02
2023-04-09T06:25:26.961Z,14.32
2023-04-09T06:27:53.974Z,14.93
2023-04-09T06:30:21.024Z,15.23
2023-04-09T06:32:54.342Z,18.00
2023-04-09T06:35:21.785Z,18.85
2023-04-09T06:37:48.765Z,16.67
2023-04-09T06:40:16.189Z,15.57
2023-04-09T06:42:43.225Z,17.33
2023-04-09T06:45:18.149Z,13.63
2023-04-09T06:47:45.205Z,17.40
2023-04-09T06:50:12.252Z,19.90
2023-04-09T06:52:39.335Z,13.98
2023-04-09T06:55:06.846Z,15.38
2023-04-09T06:57:33.909Z,16.58
2023-04-09T07:00:00.947Z,14.88
2023-04-09T07:02:28.397Z,18.80
2023-04-09T07:04:55.512Z,14.98
2023-04-09T07:07:24.298Z,14.52
2023-04-09T07:09:53.348Z,15.30
2023-04-09T07:12:30.960Z,19.45
2023-04-09T07:14:59.471Z,38.17
2023-04-09T07:17:26.748Z,15.02
2023-04-09T07:19:54.531Z,34.58
2023-04-09T07:22:25.472Z,14.80
2023-04-09T07:24:55.948Z,17.58
2023-04-09T07:27:24.384Z,18.20
2023-04-09T07:29:51.339Z,15.85
2023-04-09T07:32:18.616Z,15.90
2023-04-09T07:34:45.822Z,22.63
2023-04-09T07:37:13.005Z,15.80
2023-04-09T07:39:39.977Z,15.13
2023-04-09T07:42:07.014Z,22.58
2023-04-09T07:44:36.420Z,21.70
2023-04-09T07:47:04.910Z,17.65
2023-04-09T07:49:31.935Z,17.30
2023-04-09T07:52:00.302Z,15.70
2023-04-09T07:54:28.472Z,17.90
2023-04-09T07:56:56.711Z,19.60
2023-04-09T07:59:24.172Z,20.98
2023-04-09T08:01:51.275Z,18.23
2023-04-09T08:04:18.522Z,22.33
2023-04-09T08:06:50.841Z,19.80
2023-04-09T08:09:18.661Z,15.15
2023-04-09T08:11:46.175Z,20.73
2023-04-09T08:14:17.731Z,21.95
2023-04-09T08:16:47.408Z,21.80
2023-04-09T08:19:16.962Z,18.40
2023-04-09T08:21:44.415Z,19.50
2023-04-09T08:24:12.616Z,18.25
2023-04-09T08:26:40.610Z,38.60
2023-04-09T08:29:08.982Z,19.10
2023-04-09T08:31:37.606Z,20.38
2023-04-09T08:34:05.333Z,22.75
2023-04-09T08:36:32.758Z,37.33
2023-04-09T08:39:00.716Z,17.45
2023-04-09T08:41:31.294Z,37.13
2023-04-09T08:43:59.985Z,23.67
2023-04-09T08:46:27.941Z,20.08
2023-04-09T08:48:55.608Z,40.67
2023-04-09T08:51:24.112Z,25.98
2023-04-09T08:54:01.354Z,35.53
2023-04-09T08:56:30.826Z,43.33
2023-04-09T08:58:57.762Z,27.95
2023-04-09T09:01:26.715Z,28.98
2023-04-09T09:04:01.967Z,22.55
2023-04-09T09:06:33.221Z,25.50
2023-04-09T09:09:04.704Z,39.33
2023-04-09T09:11:31.905Z,36.78
2023-04-09T09:14:06.830Z,23.88
2023-04-09T09:16:35.684Z,38.03
2023-04-09T09:19:03.112Z,36.47
2023-04-09T09:21:30.469Z,36.60
2023-04-09T09:23:58.282Z,31.58
2023-04-09T09:26:30.162Z,37.08
2023-04-09T09:29:01.426Z,35.67
2023-04-09T09:31:28.672Z,32.88
2023-04-09T09:33:56.440Z,34.60
2023-04-09T09:36:34.476Z,33.08
2023-04-09T09:39:05.282Z,31.45
2023-04-09T09:41:32.321Z,32.20
2023-04-09T09:43:59.475Z,31.95
2023-04-09T09:46:27.454Z,31.60
2023-04-09T09:48:54.967Z,32.28
2023-04-09T09:51:26.566Z,32.00
2023-04-09T09:53:57.142Z,33.15
2023-04-09T09:56:39.587Z,30.25
2023-04-09T09:59:21.968Z,29.48
2023-04-09T10:01:56.344Z,30.90
2023-04-09T10:04:24.199Z,29.77
2023-04-09T10:06:53.631Z,27.63
2023-04-09T10:09:22.268Z,27.92
2023-04-09T10:11:49.675Z,28.73
2023-04-09T10:14:18.815Z,27.00
2023-04-09T10:16:47.330Z,26.35
2023-04-09T10:19:15.279Z,28.25
2023-04-09T10:21:45.515Z,26.05
2023-04-09T10:24:12.847Z,25.58
2023-04-09T10:26:45.052Z,26.88
2023-04-09T10:29:16.597Z,26.40
2023-04-09T10:32:06.974Z,24.95
2023-04-09T10:34:40.572Z,24.42
2023-04-09T10:37:09.850Z,21.83
2023-04-09T10:39:43.959Z,21.92
2023-04-09T10:42:18.132Z,21.92
2023-04-09T10:44:46.075Z,23.05
2023-04-09T10:47:33.034Z,21.17
2023-04-09T10:50:18.185Z,21.95
2023-04-09T10:52:45.907Z,20.00
2023-04-09T10:55:33.386Z,21.98
2023-04-09T10:58:00.589Z,19.63
2023-04-09T11:00:27.529Z,18.08
2023-04-09T11:03:04.771Z,18.23
2023-04-09T11:05:34.466Z,17.85
2023-04-09T11:08:05.615Z,16.88
2023-04-09T11:10:33.385Z,16.65
2023-04-09T11:13:01.098Z,16.55
2023-04-09T11:15:28.542Z,16.52
2023-04-09T11:17:56.213Z,17.23
2023-04-09T11:20:25.523Z,17.50
2023-04-09T11:22:54.949Z,16.77
2023-04-09T11:25:24.481Z,16.98
2023-04-09T11:27:52.102Z,17.30
2023-04-09T11:30:20.516Z,15.60
2023-04-09T11:32:49.113Z,15.32
2023-04-09T11:35:21.535Z,14.52
2023-04-09T11:37:50.249Z,15.02
2023-04-09T11:40:29.289Z,14.05
2023-04-09T11:42:57.165Z,12.77
2023-04-09T11:45:30.521Z,13.48
2023-04-09T11:47:58.193Z,14.50
2023-04-09T11:50:25.746Z,13.13
2023-04-09T11:52:52.758Z,11.55
2023-04-09T11:55:29.807Z,12.77
2023-04-09T11:58:01.413Z,13.00
2023-04-09T12:00:29.363Z,12.00
2023-04-09T12:03:05.393Z,12.43
2023-04-09T12:05:35.061Z,12.23
2023-04-09T12:08:07.119Z,13.63
2023-04-09T12:10:36.484Z,14.20
2023-04-09T12:13:10.560Z,12.13
2023-04-09T12:15:46.394Z,11.38
2023-04-09T12:18:14.005Z,11.80
2023-04-09T12:20:46.641Z,11.32
2023-04-09T12:23:14.251Z,12.20
2023-04-09T12:25:42.976Z,13.60
2023-04-09T12:28:13.815Z,12.57
2023-04-09T12:30:41.183Z,11.75
2023-04-09T12:33:10.774Z,12.82
2023-04-09T12:35:38.724Z,11.38
2023-04-09T12:38:05.907Z,10.90
2023-04-09T12:40:33.049Z,10.70
2023-04-09T12:43:00.052Z,11.38
2023-04-09T12:45:28.086Z,12.40
2023-04-09T12:47:55.256Z,11.95
2023-04-09T12:50:22.553Z,12.57
2023-04-09T12:52:49.831Z,11.20
2023-04-09T12:55:17.034Z,11.38
2023-04-09T12:57:47.010Z,11.25
2023-04-09T13:00:16.234Z,12.10
2023-04-09T13:02:43.705Z,10.75
2023-04-09T13:05:11.361Z,11.02
2023-04-09T13:07:39.033Z,10.30
2023-04-09T13:10:07.273Z,9.50
2023-04-09T13:12:34.311Z,9.43
2023-04-09T13:15:01.536Z,10.27
2023-04-09T13:17:28.528Z,9.93
2023-04-09T13:19:55.619Z,9.45
2023-04-09T13:22:22.570Z,10.30
2023-04-09T13:24:49.537Z,10.55
2023-04-09T13:27:16.970Z,9.45
2023-04-09T13:29:44.109Z,9.85
2023-04-09T13:32:11.571Z,10.15
2023-04-09T13:34:39.880Z,10.27
2023-04-09T13:37:07.151Z,9.98
2023-04-09T13:39:34.267Z,9.88
2023-04-09T13:42:07.298Z,10.38
2023-04-09T13:44:42.264Z,10.45
2023-04-09T13:47:11.335Z,10.20
2023-04-09T13:49:42.043Z,10.45
2023-04-09T13:52:09.605Z,10.20
2023-04-09T13:54:36.941Z,9.85
2023-04-09T13:57:04.211Z,10.13
2023-04-09T13:59:31.139Z,10.25
2023-04-09T14:01:58.356Z,9.85
2023-04-09T14:04:25.459Z,9.60
2023-04-09T14:06:52.512Z,9.90
2023-04-09T14:09:19.524Z,10.32
2023-04-09T14:11:46.501Z,10.43
2023-04-09T14:14:13.393Z,8.40
2023-04-09T14:16:40.787Z,8.77
2023-04-09T14:19:07.943Z,9.88
2023-04-09T14:21:34.909Z,8.98
2023-04-09T14:24:01.952Z,8.95
2023-04-09T14:26:29.286Z,8.68
2023-04-09T14:28:56.417Z,9.38
2023-04-09T14:31:23.588Z,9.05
2023-04-09T14:33:50.715Z,9.77
2023-04-09T14:36:18.171Z,8.88
2023-04-09T14:38:45.921Z,9.70
2023-04-09T14:41:12.879Z,8.23
2023-04-09T14:43:39.803Z,8.05
2023-04-09T14:46:11.740Z,7.65
2023-04-09T14:48:39.909Z,8.20
2023-04-09T14:51:09.052Z,7.45
2023-04-09T14:53:36.436Z,8.02
2023-04-09T14:56:03.908Z,8.95
2023-04-09T14:58:31.096Z,9.38
2023-04-09T15:00:58.131Z,8.90
2023-04-09T15:03:26.177Z,8.73
2023-04-09T15:05:53.366Z,8.75
2023-04-09T15:08:20.516Z,8.55
2023-04-09T15:10:47.535Z,8.13
2023-04-09T15:13:14.591Z,7.88
2023-04-09T15:15:43.387Z,8.55
2023-04-09T15:18:10.475Z,8.60
2023-04-09T15:20:43.550Z,8.05
2023-04-09T15:23:11.081Z,7.88
2023-04-09T15:25:38.575Z,8.32
2023-04-09T15:28:06.603Z,7.65
2023-04-09T15:30:35.698Z,7.65
2023-04-09T15:33:02.940Z,7.38
2023-04-09T15:35:30.013Z,7.80
2023-04-09T15:37:57.398Z,7.70
2023-04-09T15:40:24.473Z,7.80
2023-04-09T15:42:51.567Z,7.70
2023-04-09T15:45:18.595Z,8.30
2023-04-09T15:47:46.155Z,7.47
2023-04-09T15:50:14.145Z,7.68
2023-04-09T15:52:41.230Z,7.18
2023-04-09T15:55:09.120Z,7.45
2023-04-09T15:57:36.611Z,7.10
2023-04-09T16:00:03.718Z,7.47
2023-04-09T16:02:31.643Z,7.80
2023-04-09T16:04:58.701Z,7.70
2023-04-09T16:07:25.814Z,8.02
2023-04-09T16:09:52.777Z,8.20
2023-04-09T16:12:19.766Z,7.20
2023-04-09T16:14:46.705Z,6.50
2023-04-09T16:17:13.681Z,7.45
2023-04-09T16:19:42.079Z,8.25
2023-04-09T16:22:10.061Z,7.88
2023-04-09T16:24:37.229Z,7.50
2023-04-09T16:27:04.443Z,7.20
2023-04-09T16:29:31.383Z,7.85
2023-04-09T16:31:58.475Z,7.93
2023-04-09T16:34:25.686Z,7.55
2023-04-09T16:36:52.688Z,7.47
2023-04-09T16:39:19.891Z,7.50
2023-04-09T16:41:46.973Z,7.97
2023-04-09T16:44:13.989Z,7.35
2023-04-09T16:46:41.079Z,7.38
2023-04-09T16:49:08.065Z,6.75
2023-04-09T16:51:35.226Z,6.40
2023-04-09T16:54:02.193Z,7.03
2023-04-09T16:56:29.233Z,6.95
2023-04-09T16:58:56.375Z,6.95
2023-04-09T17:01:23.481Z,7.10
2023-04-09T17:03:50.727Z,7.35
2023-04-09T17:06:18.109Z,6.53
2023-04-09T17:08:45.739Z,7.13
2023-04-09T17:11:17.206Z,7.18
2023-04-09T17:13:44.217Z,8.20
2023-04-09T17:16:11.893Z,8.23
2023-04-09T17:18:39.117Z,8.50
2023-04-09T17:21:06.801Z,8.23
2023-04-09T17:23:34.014Z,7.88
2023-04-09T17:26:02.284Z,8.27
2023-04-09T17:28:29.539Z,8.13
2023-04-09T17:30:56.627Z,8.25
2023-04-09T17:33:23.801Z,7.90
2023-04-09T17:35:50.921Z,8.68
2023-04-09T17:38:21.404Z,7.95
2023-04-09T17:40:48.828Z,8.60
2023-04-09T17:43:15.820Z,8.85
2023-04-09T17:45:42.831Z,7.95
2023-04-09T17:48:09.876Z,8.45
2023-04-09T17:50:39.991Z,8.95
2023-04-09T17:53:07.622Z,8.35
2023-04-09T17:55:34.625Z,8.40
2023-04-09T17:58:01.621Z,8.95
2023-04-09T18:00:28.615Z,10.20
2023-04-09T18:02:57.507Z,15.68
2023-04-09T18:05:24.925Z,17.17
2023-04-09T18:07:53.294Z,10.68
2023-04-09T18:10:22.013Z,12.02
2023-04-09T18:12:48.977Z,11.25
2023-04-09T18:15:16.950Z,11.30
2023-04-09T18:17:43.944Z,10.13
2023-04-09T18:20:12.788Z,9.85
2023-04-09T18:22:39.725Z,10.65
2023-04-09T18:25:07.601Z,10.60
2023-04-09T18:27:35.301Z,9.60
2023-04-09T18:30:02.979Z,9.30
2023-04-09T18:32:30.025Z,9.02
2023-04-09T18:34:57.059Z,10.15
2023-04-09T18:37:24.724Z,10.10
2023-04-09T18:39:51.646Z,9.63
2023-04-09T18:42:18.570Z,10.55
2023-04-09T18:44:45.822Z,9.23
2023-04-09T18:47:12.788Z,10.45
2023-04-09T18:49:39.833Z,9.55
2023-04-09T18:52:07.857Z,10.82
2023-04-09T18:54:36.547Z,17.05
2023-04-09T18:57:07.104Z,20.90
2023-04-09T18:59:35.100Z,15.02
2023-04-09T19:02:05.044Z,11.23
2023-04-09T19:04:39.840Z,11.40
2023-04-09T19:07:07.246Z,11.23
2023-04-09T19:09:34.614Z,10.60
2023-04-09T19:12:02.047Z,10.40
2023-04-09T19:14:29.134Z,10.88
2023-04-09T19:16:57.130Z,10.50
2023-04-09T19:19:24.183Z,9.57
2023-04-09T19:21:51.294Z,10.93
2023-04-09T19:24:18.228Z,11.32
2023-04-09T19:26:45.271Z,11.55
2023-04-09T19:29:12.248Z,11.23
2023-04-09T19:31:39.461Z,13.20
2023-04-09T19:34:06.526Z,12.07
2023-04-09T19:36:34.097Z,13.02
2023-04-09T19:39:01.415Z,11.07
2023-04-09T19:41:28.505Z,10.65
2023-04-09T19:43:55.753Z,11.10
2023-04-09T19:46:22.837Z,11.05
2023-04-09T19:48:49.858Z,10.27
2023-04-09T19:51:20.307Z,10.50
2023-04-09T19:53:48.162Z,10.52
2023-04-09T19:56:15.805Z,9.70
2023-04-09T19:58:44.084Z,9.95
2023-04-09T20:01:11.589Z,9.75
2023-04-09T20:03:38.810Z,9.82
2023-04-09T20:06:09.991Z,9.60
2023-04-09T20:08:38.108Z,10.13
2023-04-09T20:11:05.408Z,10.65
2023-04-09T20:13:33.230Z,10.63
2023-04-09T20:16:00.731Z,11.27
2023-04-09T20:18:28.702Z,11.10
2023-04-09T20:20:55.744Z,11.57
2023-04-09T20:23:22.782Z,12.27
2023-04-09T20:25:54.230Z,11.40
2023-04-09T20:28:21.944Z,11.55
2023-04-09T20:30:49.371Z,11.55
2023-04-09T20:33:17.779Z,12.35
2023-04-09T20:35:44.723Z,11.60
2023-04-09T20:38:11.798Z,11.20
2023-04-09T20:40:38.771Z,10.98
2023-04-09T20:43:05.893Z,10.20
2023-04-09T20:45:32.873Z,9.85
2023-04-09T20:47:59.939Z,10.30
2023-04-09T20:50:26.819Z,9.82
2023-04-09T20:52:53.840Z,9.43
2023-04-09T20:55:21.267Z,9.15
2023-04-09T20:57:49.197Z,9.27
2023-04-09T21:00:16.541Z,8.20
2023-04-09T21:02:43.623Z,8.45
2023-04-09T21:05:23.915Z,7.38
2023-04-09T21:07:53.421Z,7.88
2023-04-09T21:10:20.616Z,7.60
2023-04-09T21:12:47.603Z,7.15
2023-04-09T21:15:14.666Z,7.97
2023-04-09T21:17:41.785Z,7.63
2023-04-09T21:20:09.311Z,8.80
2023-04-09T21:22:36.384Z,8.20
2023-04-09T21:25:03.780Z,7.70
2023-04-09T21:27:31.256Z,8.20
2023-04-09T21:29:58.251Z,8.60
2023-04-09T21:32:25.751Z,8.07
2023-04-09T21:34:52.878Z,7.55
2023-04-09T21:37:19.893Z,7.15
2023-04-09T21:39:48.814Z,7.15
2023-04-09T21:42:15.968Z,6.53
2023-04-09T21:44:42.996Z,6.47
2023-04-09T21:47:12.124Z,6.35
2023-04-09T21:49:40.598Z,6.13
2023-04-09T21:52:14.344Z,6.47
2023-04-09T21:54:42.535Z,5.93
2023-04-09T21:57:10.382Z,5.75
2023-04-09T21:59:37.566Z,5.78
2023-04-09T22:02:05.264Z,5.90
2023-04-09T22:04:33.058Z,6.43
2023-04-09T22:07:00.052Z,5.35
2023-04-09T22:09:27.305Z,5.60
2023-04-09T22:11:54.314Z,4.90
2023-04-09T22:14:22.221Z,5.68
2023-04-09T22:16:49.221Z,5.18
2023-04-09T22:19:16.672Z,5.45
2023-04-09T22:21:43.665Z,5.55
2023-04-09T22:24:10.795Z,5.60
2023-04-09T22:26:39.088Z,5.50
2023-04-09T22:29:07.135Z,5.40
2023-04-09T22:31:34.140Z,5.32
2023-04-09T22:34:10.032Z,4.95
2023-04-09T22:36:44.495Z,5.85
2023-04-09T22:39:11.468Z,5.50
2023-04-09T22:41:38.818Z,5.18
2023-04-09T22:44:06.780Z,5.07
2023-04-09T22:46:34.748Z,5.32
2023-04-09T22:49:05.113Z,5.15
2023-04-09T22:51:34.785Z,5.05
2023-04-09T22:54:02.167Z,4.90
2023-04-09T22:56:32.582Z,5.07
2023-04-09T22:59:00.408Z,5.13
2023-04-09T23:01:27.921Z,4.63
2023-04-09T23:03:55.527Z,5.22
2023-04-09T23:06:22.852Z,5.20
2023-04-09T23:08:50.172Z,5.00
2023-04-09T23:11:17.127Z,5.03
2023-04-09T23:13:44.507Z,5.00
2023-04-09T23:16:11.828Z,5.78
2023-04-09T23:18:39.021Z,5.50
2023-04-09T23:21:09.992Z,5.22
2023-04-09T23:23:38.151Z,5.15
2023-04-09T23:26:06.179Z,5.65
2023-04-09T23:28:33.754Z,5.35
2023-04-09T23:31:01.205Z,5.75
2023-04-09T23:33:28.347Z,5.75
2023-04-09T23:35:55.591Z,5.97
2023-04-09T23:38:22.685Z,5.40
2023-04-09T23:40:49.709Z,5.57
2023-04-09T23:43:16.740Z,5.28
2023-04-09T23:45:44.403Z,5.72
2023-04-09T23:48:12.385Z,5.30
2023-04-09T23:50:41.275Z,5.72
2023-04-09T23:53:08.793Z,5.60
2023-04-09T23:55:41.009Z,5.68
2023-04-09T23:58:08.470Z,5.97
